Time,TemperatureF,DewpointF,PressureIn,WindDirection,WindDirectionDegrees,WindSpeedMPH,WindSpeedGustMPH,Humidity,HourlyPrecipIn,Conditions,Clouds,dailyrainin,SoftwareType,DateUTC
2013-06-22 08:50:00,54.0,-99.9,-100.00,East,94,6.0,8.0,-999,-99.99,,,-99.99,,2013-06-22 14:50:00,
2013-06-22 09:43:00,54.0,-99.9,-100.00,East,94,6.0,8.0,-999,-99.99,,,-99.99,,2013-06-22 15:43:00,
2013-06-22 09:50:00,57.0,-99.9,-100.00,East,99,7.0,8.0,-999,-99.99,,,-99.99,,2013-06-22 15:50:00,
2013-06-22 10:43:00,57.0,-99.9,-100.00,East,99,7.0,8.0,-999,-99.99,,,-99.99,,2013-06-22 16:43:00,
2013-06-22 10:50:00,61.0,-99.9,-100.00,North,2,5.0,9.0,-999,-99.99,,,-99.99,,2013-06-22 16:50:00,
2013-06-22 11:43:00,61.0,-99.9,-100.00,North,2,5.0,9.0,-999,-99.99,,,-99.99,,2013-06-22 17:43:00,
2013-06-22 11:50:00,63.0,-99.9,-100.00,East,87,7.0,10.0,-999,-99.99,,,-99.99,,2013-06-22 17:50:00,
2013-06-22 12:43:00,63.0,-99.9,-100.00,East,87,7.0,10.0,-999,-99.99,,,-99.99,,2013-06-22 18:43:00,
2013-06-22 12:50:00,64.0,-99.9,-100.00,NE,35,6.0,9.0,-999,-99.99,,,-99.99,,2013-06-22 18:50:00,
2013-06-22 13:43:00,64.0,-99.9,-100.00,NE,35,6.0,9.0,-999,-99.99,,,-99.99,,2013-06-22 19:43:00,
2013-06-22 13:50:00,66.0,-99.9,-100.00,NE,35,6.0,9.0,-999,-99.99,,,-99.99,,2013-06-22 19:50:00,
2013-06-22 14:43:00,66.0,-99.9,-100.00,NE,35,6.0,9.0,-999,-99.99,,,-99.99,,2013-06-22 20:43:00,
2013-06-22 14:50:00,64.0,-99.9,-100.00,NNE,26,7.0,10.0,-999,-99.99,,,-99.99,,2013-06-22 20:50:00,
2013-06-22 15:43:00,64.0,-99.9,-100.00,NNE,26,7.0,10.0,-999,-99.99,,,-99.99,,2013-06-22 21:43:00,
2013-06-22 15:50:00,68.0,-99.9,-100.00,North,5,4.0,10.0,-999,-99.99,,,-99.99,,2013-06-22 21:50:00,
2013-06-22 16:43:00,68.0,-99.9,-100.00,North,5,4.0,10.0,-999,-99.99,,,-99.99,,2013-06-22 22:43:00,
2013-06-22 16:50:00,68.0,-99.9,-100.00,NNE,33,7.0,8.0,-999,-99.99,,,-99.99,,2013-06-22 22:50:00,
2013-06-22 17:43:00,68.0,-99.9,-100.00,NNE,33,7.0,8.0,-999,-99.99,,,-99.99,,2013-06-22 23:43:00,
2013-06-22 19:32:00,70.0,-99.9,-100.00,NE,40,9.0,10.0,-999,-99.99,,,-99.99,,2013-06-23 01:32:00,
2013-06-22 19:42:00,70.0,-99.9,-100.00,NE,40,9.0,10.0,-999,-99.99,,,-99.99,,2013-06-23 01:42:00,
2013-06-22 20:41:00,63.0,-99.9,-100.00,East,97,11.0,13.0,-999,-99.99,,,-99.99,,2013-06-23 02:41:00,
2013-06-22 21:41:00,59.0,-99.9,-100.00,North,8,1.0,3.0,-999,-99.99,,,-99.99,,2013-06-23 03:41:00,
2013-06-22 22:31:00,50.0,-99.9,-100.00,North,0,5.0,9.0,-999,-99.99,,,-99.99,,2013-06-23 04:31:00,
2013-06-22 22:42:00,50.0,-99.9,-100.00,North,0,5.0,9.0,-999,-99.99,,,-99.99,,2013-06-23 04:42:00,
2013-06-22 23:42:00,48.0,-99.9,-100.00,ENE,59,2.0,3.0,-999,-99.99,,,-99.99,,2013-06-23 05:42:00,